createdAt,value
2022-11-03T00:00:25.198Z,100178.22
2022-11-03T00:02:52.320Z,100179.09
2022-11-03T00:05:19.329Z,100173.81
2022-11-03T00:07:46.359Z,100168.78
2022-11-03T00:10:13.395Z,100180.94
2022-11-03T00:12:40.339Z,100173.44
2022-11-03T00:15:07.837Z,100178.13
2022-11-03T00:17:34.802Z,100180.44
2022-11-03T00:20:01.895Z,100176.53
2022-11-03T00:22:28.895Z,100168.31
2022-11-03T00:24:55.844Z,100166.50
2022-11-03T00:27:22.826Z,100167.22
2022-11-03T00:29:49.754Z,100162.91
2022-11-03T00:32:16.829Z,100168.06
2022-11-03T00:34:43.842Z,100151.03
2022-11-03T00:37:10.872Z,100152.00
2022-11-03T00:39:37.855Z,100151.03
2022-11-03T00:42:04.891Z,100140.47
2022-11-03T00:44:31.867Z,100139.41
2022-11-03T00:46:58.833Z,100140.25
2022-11-03T00:49:25.835Z,100134.38
2022-11-03T00:51:52.934Z,100137.53
2022-11-03T00:54:19.949Z,100129.81
2022-11-03T00:56:46.898Z,100133.97
2022-11-03T00:59:13.844Z,100129.03
2022-11-03T01:01:46.973Z,100138.22
2022-11-03T01:04:16.765Z,100130.47
2022-11-03T01:06:49.497Z,100115.63
2022-11-03T01:09:27.518Z,100117.09
2022-11-03T01:12:12.676Z,100105.19
2022-11-03T01:14:46.684Z,100096.66
2022-11-03T01:17:27.443Z,100103.41
2022-11-03T01:19:55.129Z,100092.94
2022-11-03T01:22:24.127Z,100100.53
2022-11-03T01:24:51.313Z,100097.56
2022-11-03T01:27:20.598Z,100094.59
2022-11-03T01:29:47.560Z,100077.53
2022-11-03T01:32:15.007Z,100072.00
2022-11-03T01:34:42.007Z,100079.13
2022-11-03T01:37:09.059Z,100070.28
2022-11-03T01:39:36.100Z,100055.78
2022-11-03T01:42:03.592Z,100056.78
2022-11-03T01:44:39.515Z,100060.34
2022-11-03T01:47:13.691Z,100058.03
2022-11-03T01:49:49.220Z,100053.31
2022-11-03T01:52:25.524Z,100043.75
2022-11-03T01:55:07.014Z,100043.94
2022-11-03T01:57:45.349Z,100039.06
2022-11-03T02:00:13.100Z,100038.31
2022-11-03T02:02:41.561Z,100030.75
2022-11-03T02:05:10.523Z,100033.69
2022-11-03T02:07:46.995Z,100025.03
2022-11-03T02:10:14.176Z,100022.69
2022-11-03T02:12:42.201Z,100020.00
2022-11-03T02:15:13.237Z,100020.00
2022-11-03T02:17:42.372Z,100029.94
2022-11-03T02:20:16.027Z,100016.59
2022-11-03T02:22:58.146Z,100008.63
2022-11-03T02:25:46.228Z,100006.16
2022-11-03T02:28:16.413Z,100003.47
2022-11-03T02:30:54.377Z,99992.81
2022-11-03T02:33:35.278Z,99989.41
2022-11-03T02:36:15.580Z,99984.13
2022-11-03T02:39:05.416Z,99978.00
2022-11-03T02:41:35.468Z,99994.91
2022-11-03T02:44:04.366Z,99986.06
2022-11-03T02:46:34.015Z,99990.50
2022-11-03T02:49:01.005Z,99988.66
2022-11-03T02:51:27.949Z,99990.63
2022-11-03T02:54:11.625Z,99978.97
2022-11-03T02:56:47.348Z,99967.47
2022-11-03T02:59:20.172Z,99963.31
2022-11-03T03:01:55.623Z,99959.06
2022-11-03T03:04:30.261Z,99953.03
2022-11-03T03:07:08.163Z,99955.59
2022-11-03T03:09:41.389Z,99951.09
2022-11-03T03:12:11.898Z,99948.63
2022-11-03T03:14:41.997Z,99944.13
2022-11-03T03:17:15.226Z,99947.09
2022-11-03T03:19:42.129Z,99944.50
2022-11-03T03:22:19.561Z,99933.88
2022-11-03T03:24:53.100Z,99932.28
2022-11-03T03:27:24.634Z,99936.81
2022-11-03T03:30:01.271Z,99930.44
2022-11-03T03:32:34.378Z,99937.81
2022-11-03T03:35:03.508Z,99942.34
2022-11-03T03:37:32.740Z,99939.06
2022-11-03T03:40:05.052Z,99938.19
2022-11-03T03:42:34.244Z,99941.88
2022-11-03T03:45:01.615Z,99942.00
2022-11-03T03:47:31.151Z,99938.91
2022-11-03T03:49:58.718Z,99936.94
2022-11-03T03:52:26.511Z,99936.81
2022-11-03T03:54:54.668Z,99936.81
2022-11-03T03:57:24.216Z,99921.25
2022-11-03T03:59:51.169Z,99926.50
2022-11-03T04:02:18.456Z,99922.94
2022-11-03T04:04:45.494Z,99910.00
2022-11-03T04:07:12.675Z,99910.25
2022-11-03T04:09:39.642Z,99906.09
2022-11-03T04:12:08.654Z,99903.66
2022-11-03T04:14:35.618Z,99896.53
2022-11-03T04:17:02.741Z,99899.38
2022-11-03T04:19:29.705Z,99908.31
2022-11-03T04:21:56.672Z,99907.44
2022-11-03T04:24:24.098Z,99901.22
2022-11-03T04:26:51.108Z,99899.38
2022-11-03T04:29:18.356Z,99893.00
2022-11-03T04:31:45.534Z,99891.78
2022-11-03T04:34:12.921Z,99887.84
2022-11-03T04:36:39.919Z,99889.78
2022-11-03T04:39:16.053Z,99890.66
2022-11-03T04:41:43.122Z,99889.66
2022-11-03T04:44:16.492Z,99887.22
2022-11-03T04:46:44.946Z,99889.19
2022-11-03T04:49:18.886Z,99887.50
2022-11-03T04:51:45.842Z,99879.41
2022-11-03T04:54:19.537Z,99882.09
2022-11-03T04:56:46.566Z,99875.97
2022-11-03T04:59:15.885Z,99874.16
2022-11-03T05:01:44.694Z,99863.38
2022-11-03T05:04:14.355Z,99865.19
2022-11-03T05:06:42.194Z,99859.94
2022-11-03T05:09:15.798Z,99860.13
2022-11-03T05:11:45.336Z,99856.84
2022-11-03T05:14:21.193Z,99849.88
2022-11-03T05:16:50.062Z,99849.16
2022-11-03T05:19:28.794Z,99847.56
2022-11-03T05:21:58.051Z,99853.69
2022-11-03T05:24:25.051Z,99848.31
2022-11-03T05:26:54.376Z,99841.19
2022-11-03T05:29:25.436Z,99841.06
2022-11-03T05:31:54.677Z,99830.28
2022-11-03T05:34:30.531Z,99827.59
2022-11-03T05:37:21.945Z,99820.38
2022-11-03T05:39:53.675Z,99809.97
2022-11-03T05:42:25.200Z,99813.78
2022-11-03T05:44:52.633Z,99809.25
2022-11-03T05:47:31.191Z,99817.78
2022-11-03T05:50:15.782Z,99818.91
2022-11-03T05:52:44.392Z,99814.19
2022-11-03T05:55:33.043Z,99812.84
2022-11-03T05:58:11.710Z,99812.84
2022-11-03T06:00:45.593Z,99808.59
2022-11-03T06:03:24.446Z,99804.50
2022-11-03T06:05:53.126Z,99806.47
2022-11-03T06:08:30.457Z,99811.75
2022-11-03T06:10:59.937Z,99802.78
2022-11-03T06:13:30.855Z,99801.22
2022-11-03T06:16:01.654Z,99794.25
2022-11-03T06:18:36.137Z,99794.25
2022-11-03T06:21:08.978Z,99797.94
2022-11-03T06:23:37.427Z,99796.94
2022-11-03T06:26:15.963Z,99782.72
2022-11-03T06:28:43.043Z,99776.50
2022-11-03T06:31:30.411Z,99775.50
2022-11-03T06:33:58.714Z,99778.06
2022-11-03T06:36:35.136Z,99778.94
2022-11-03T06:39:09.540Z,99786.75
2022-11-03T06:41:37.061Z,99785.63
2022-11-03T06:44:23.752Z,99782.81
2022-11-03T06:46:54.198Z,99788.53
2022-11-03T06:49:35.287Z,99785.47
2022-11-03T06:52:14.960Z,99777.00
2022-11-03T06:54:41.977Z,99773.03
2022-11-03T06:57:14.763Z,99774.75
2022-11-03T06:59:41.770Z,99765.59
2022-11-03T07:02:45.490Z,99766.31
2022-11-03T07:05:21.402Z,99773.53
2022-11-03T07:07:48.621Z,99770.28
2022-11-03T07:10:16.114Z,99768.31
2022-11-03T07:12:43.617Z,99768.38
2022-11-03T07:15:25.427Z,99769.81
2022-11-03T07:17:52.950Z,99763.41
2022-11-03T07:20:20.023Z,99756.75
2022-11-03T07:22:48.310Z,99756.81
2022-11-03T07:25:21.767Z,99756.84
2022-11-03T07:27:51.613Z,99755.28
2022-11-03T07:30:30.306Z,99751.56
2022-11-03T07:33:01.183Z,99746.94
2022-11-03T07:35:53.190Z,99735.31
2022-11-03T07:38:21.872Z,99742.28
2022-11-03T07:40:50.742Z,99741.16
2022-11-03T07:43:36.300Z,99741.72
2022-11-03T07:46:09.666Z,99744.44
2022-11-03T07:48:44.011Z,99736.75
2022-11-03T07:51:21.959Z,99723.38
2022-11-03T07:53:52.641Z,99715.53
2022-11-03T07:56:21.544Z,99705.88
2022-11-03T07:59:13.963Z,99706.81
2022-11-03T08:01:43.750Z,99709.81
2022-11-03T08:04:14.168Z,99706.50
2022-11-03T08:06:41.267Z,99711.44
2022-11-03T08:09:08.637Z,99712.69
2022-11-03T08:11:35.620Z,99690.88
2022-11-03T08:14:02.670Z,99681.59
2022-11-03T08:16:29.737Z,99678.56
2022-11-03T08:18:56.912Z,99666.31
2022-11-03T08:21:23.962Z,99665.41
2022-11-03T08:23:51.380Z,99651.56
2022-11-03T08:26:18.808Z,99640.69
2022-11-03T08:28:46.086Z,99631.53
2022-11-03T08:31:16.168Z,99628.53
2022-11-03T08:33:43.414Z,99636.53
2022-11-03T08:36:11.086Z,99622.59
2022-11-03T08:38:38.440Z,99627.56
2022-11-03T08:41:05.617Z,99615.25
2022-11-03T08:43:32.684Z,99618.81
2022-11-03T08:46:09.669Z,99613.44
2022-11-03T08:48:42.687Z,99607.81
2022-11-03T08:51:09.796Z,99605.19
2022-11-03T08:53:36.896Z,99598.28
2022-11-03T08:56:04.049Z,99593.91
2022-11-03T08:58:33.787Z,99580.63
2022-11-03T09:01:00.786Z,99576.56
2022-11-03T09:03:28.041Z,99587.28
2022-11-03T09:05:55.166Z,99591.59
2022-11-03T09:11:09.234Z,99590.81
2022-11-03T09:13:36.351Z,99592.00
2022-11-03T09:16:03.558Z,99585.03
2022-11-03T09:18:30.537Z,99580.09
2022-11-03T09:20:57.783Z,99573.41
2022-11-03T09:23:24.851Z,99566.41
2022-11-03T09:25:51.822Z,99550.34
2022-11-03T09:28:18.893Z,99534.84
2022-11-03T09:30:45.933Z,99525.03
2022-11-03T09:33:15.655Z,99525.97
2022-11-03T09:35:42.762Z,99524.19
2022-11-03T09:38:09.938Z,99526.84
2022-11-03T09:40:37.528Z,99533.25
2022-11-03T09:43:04.916Z,99523.19
2022-11-03T09:45:32.676Z,99518.72
2022-11-03T09:48:00.980Z,99532.63
2022-11-03T09:50:28.374Z,99549.88
2022-11-03T09:52:56.584Z,99545.56
2022-11-03T09:55:26.508Z,99543.81
2022-11-03T09:58:02.003Z,99547.59
2022-11-03T10:00:29.100Z,99534.06
2022-11-03T10:02:56.527Z,99530.88
2022-11-03T10:05:26.083Z,99528.16
2022-11-03T10:07:58.987Z,99519.16
2022-11-03T10:10:26.829Z,99519.88
2022-11-03T10:12:54.111Z,99504.91
2022-11-03T10:15:23.560Z,99498.75
2022-11-03T10:17:51.561Z,99501.31
2022-11-03T10:20:21.210Z,99486.31
2022-11-03T10:22:53.394Z,99488.97
2022-11-03T10:25:41.454Z,99478.69
2022-11-03T10:28:25.827Z,99468.28
2022-11-03T10:31:12.669Z,99466.06
2022-11-03T10:33:51.369Z,99454.56
2022-11-03T10:36:18.294Z,99459.25
2022-11-03T10:38:45.322Z,99443.75
2022-11-03T10:41:15.230Z,99438.78
2022-11-03T10:43:44.730Z,99435.97
2022-11-03T10:46:36.625Z,99429.31
2022-11-03T10:49:05.051Z,99423.97
2022-11-03T10:51:35.821Z,99412.94
2022-11-03T10:54:04.854Z,99406.25
2022-11-03T10:56:32.734Z,99410.50
2022-11-03T10:59:00.715Z,99409.72
2022-11-03T11:01:27.966Z,99388.66
2022-11-03T11:03:55.539Z,99371.66
2022-11-03T11:06:28.630Z,99368.53
2022-11-03T11:09:01.801Z,99360.34
2022-11-03T11:11:28.970Z,99353.16
2022-11-03T11:14:28.253Z,99347.44
2022-11-03T11:16:57.637Z,99344.09
2022-11-03T11:19:26.529Z,99344.09
2022-11-03T11:21:54.484Z,99343.53
2022-11-03T11:24:43.377Z,99341.41
2022-11-03T11:27:36.667Z,99337.84
2022-11-03T11:30:27.662Z,99325.41
2022-11-03T11:33:22.446Z,99332.56
2022-11-03T11:35:49.426Z,99329.00
2022-11-03T11:38:44.957Z,99307.31
2022-11-03T11:41:11.946Z,99295.25
2022-11-03T11:43:39.133Z,99292.72
2022-11-03T11:46:33.536Z,99286.19
2022-11-03T11:49:16.254Z,99292.72
2022-11-03T11:51:43.340Z,99295.47
2022-11-03T11:54:20.567Z,99277.53
2022-11-03T11:56:49.800Z,99271.63
2022-11-03T11:59:24.772Z,99265.72
2022-11-03T12:01:55.433Z,99261.72
2022-11-03T12:04:28.392Z,99247.13
2022-11-03T12:06:55.512Z,99243.94
2022-11-03T12:09:25.412Z,99233.38
2022-11-03T12:11:56.123Z,99226.19
2022-11-03T12:14:40.042Z,99214.44
2022-11-03T12:17:15.933Z,99217.97
2022-11-03T12:19:52.879Z,99220.50
2022-11-03T12:22:25.724Z,99214.84
2022-11-03T12:24:56.100Z,99222.00
2022-11-03T12:27:26.465Z,99218.16
2022-11-03T12:29:55.728Z,99213.94
2022-11-03T12:32:33.498Z,99214.16
2022-11-03T12:35:05.705Z,99205.91
2022-11-03T12:37:32.742Z,99204.47
2022-11-03T12:39:59.807Z,99208.91
2022-11-03T12:42:26.794Z,99203.84
2022-11-03T12:44:53.830Z,99193.66
2022-11-03T12:47:21.066Z,99184.81
2022-11-03T12:49:48.405Z,99199.81
2022-11-03T12:52:15.569Z,99200.25
2022-11-03T12:54:42.611Z,99189.88
2022-11-03T12:57:09.751Z,99181.84
2022-11-03T12:59:36.941Z,99182.50
2022-11-03T13:02:04.242Z,99178.03
2022-11-03T13:04:31.431Z,99172.16
2022-11-03T13:06:58.490Z,99156.34
2022-11-03T13:09:25.488Z,99156.56
2022-11-03T13:11:52.464Z,99148.38
2022-11-03T13:14:19.482Z,99143.78
2022-11-03T13:16:46.452Z,99136.78
2022-11-03T13:19:13.476Z,99125.13
2022-11-03T13:21:40.444Z,99117.38
2022-11-03T13:24:07.505Z,99126.63
2022-11-03T13:26:34.646Z,99114.41
2022-11-03T13:29:01.708Z,99107.22
2022-11-03T13:31:28.754Z,99093.69
2022-11-03T13:33:55.713Z,99094.09
2022-11-03T13:36:22.721Z,99091.19
2022-11-03T13:38:49.762Z,99078.78
2022-11-03T13:41:16.711Z,99081.13
2022-11-03T13:43:43.701Z,99083.47
2022-11-03T13:46:10.704Z,99072.94
2022-11-03T13:49:31.862Z,99082.19
2022-11-03T13:51:24.695Z,99075.69
2022-11-03T13:59:26.364Z,99055.66
2022-11-03T14:04:41.281Z,99044.91
2022-11-03T14:07:08.681Z,99035.41
2022-11-03T14:12:03.846Z,99028.25
2022-11-03T14:14:31.487Z,99022.59
2022-11-03T14:16:58.470Z,99012.88
2022-11-03T14:19:31.745Z,99016.91
2022-11-03T14:22:04.215Z,99009.97
2022-11-03T14:24:31.268Z,98993.56
2022-11-03T14:26:58.316Z,99001.81
2022-11-03T14:29:25.361Z,99007.72
2022-11-03T14:31:52.603Z,99013.06
2022-11-03T14:34:19.641Z,99005.50
2022-11-03T14:36:46.756Z,99012.09
2022-11-03T14:39:14.043Z,98995.25
2022-11-03T14:41:41.073Z,98978.81
2022-11-03T14:44:08.039Z,98974.63
2022-11-03T14:46:34.991Z,98974.25
2022-11-03T14:49:02.012Z,98958.44
2022-11-03T14:51:30.115Z,98951.72
2022-11-03T14:53:57.389Z,98942.69
2022-11-03T14:56:24.736Z,98933.47
2022-11-03T14:58:51.942Z,98926.72
2022-11-03T15:01:20.224Z,98918.53
2022-11-03T15:03:47.370Z,98918.34
2022-11-03T15:06:14.455Z,98923.41
2022-11-03T15:08:41.443Z,98908.28
2022-11-03T15:11:08.967Z,98900.28
2022-11-03T15:13:41.655Z,98901.97
2022-11-03T15:16:13.017Z,98906.16
2022-11-03T15:18:40.061Z,98893.97
2022-11-03T15:21:07.064Z,98895.44
2022-11-03T15:26:21.074Z,98878.63
2022-11-03T15:28:48.163Z,98884.72
2022-11-03T15:31:15.138Z,98874.44
2022-11-03T15:33:42.145Z,98866.47
2022-11-03T15:36:09.277Z,98860.16
2022-11-03T15:38:36.279Z,98854.69
2022-11-03T15:41:03.382Z,98858.25
2022-11-03T15:43:30.434Z,98863.72
2022-11-03T15:45:57.460Z,98860.97
2022-11-03T15:48:24.482Z,98844.78
2022-11-03T15:50:51.479Z,98840.56
2022-11-03T15:53:18.478Z,98838.66
2022-11-03T15:55:45.442Z,98837.63
2022-11-03T15:58:12.409Z,98832.34
2022-11-03T16:00:39.420Z,98826.88
2022-11-03T16:03:06.500Z,98818.88
2022-11-03T16:05:33.694Z,98801.66
2022-11-03T16:08:00.655Z,98807.88
2022-11-03T16:10:27.619Z,98807.50
2022-11-03T16:12:54.633Z,98804.38
2022-11-03T16:15:21.666Z,98793.47
2022-11-03T16:17:48.609Z,98791.16
2022-11-03T16:20:15.609Z,98794.94
2022-11-03T16:22:43.432Z,98799.13
2022-11-03T16:25:13.421Z,98785.91
2022-11-03T16:27:42.649Z,98784.44
2022-11-03T16:30:10.422Z,98783.22
2022-11-03T16:32:37.741Z,98784.69
2022-11-03T16:35:05.223Z,98787.19
2022-11-03T16:37:32.331Z,98774.19
2022-11-03T16:39:59.327Z,98766.41
2022-11-03T16:42:26.388Z,98770.19
2022-11-03T16:44:53.386Z,98759.28
2022-11-03T16:47:20.335Z,98751.28
2022-11-03T16:49:47.382Z,98746.88
2022-11-03T16:52:15.376Z,98744.16
2022-11-03T16:54:42.321Z,98745.16
2022-11-03T16:57:09.267Z,98744.72
2022-11-03T16:59:36.250Z,98733.22
2022-11-03T17:02:03.380Z,98732.94
2022-11-03T17:04:30.444Z,98726.88
2022-11-03T17:06:57.545Z,98722.88
2022-11-03T17:09:24.537Z,98723.50
2022-11-03T17:11:51.529Z,98722.25
2022-11-03T17:14:18.509Z,98714.69
2022-11-03T17:16:45.647Z,98691.59
2022-11-03T17:19:13.559Z,98699.97
2022-11-03T17:21:40.628Z,98693.06
2022-11-03T17:24:08.279Z,98697.03
2022-11-03T17:26:43.351Z,98690.13
2022-11-03T17:29:17.416Z,98693.47
2022-11-03T17:31:44.537Z,98692.84
2022-11-03T17:34:11.830Z,98690.31
2022-11-03T17:36:39.165Z,98690.53
2022-11-03T17:39:06.164Z,98694.94
2022-11-03T17:41:35.371Z,98688.44
2022-11-03T17:44:02.517Z,98688.66
2022-11-03T17:46:30.525Z,98683.81
2022-11-03T17:48:57.594Z,98684.03
2022-11-03T17:51:24.681Z,98685.28
2022-11-03T17:53:51.847Z,98684.03
2022-11-03T17:56:30.157Z,98671.66
2022-11-03T17:58:58.169Z,98668.72
2022-11-03T18:01:26.610Z,98670.41
2022-11-03T18:03:53.911Z,98664.94
2022-11-03T18:06:21.652Z,98661.19
2022-11-03T18:08:49.151Z,98651.94
2022-11-03T18:11:24.324Z,98644.59
2022-11-03T18:13:51.383Z,98638.31
2022-11-03T18:16:18.469Z,98627.19
2022-11-03T18:18:45.715Z,98622.16
2022-11-03T18:21:21.806Z,98629.69
2022-11-03T18:23:48.985Z,98620.03
2022-11-03T18:26:21.365Z,98609.13
2022-11-03T18:28:49.320Z,98614.81
2022-11-03T18:31:23.530Z,98606.84
2022-11-03T18:33:52.014Z,98604.31
2022-11-03T18:36:20.053Z,98600.53
2022-11-03T18:38:47.633Z,98589.22
2022-11-03T18:41:19.820Z,98586.06
2022-11-03T18:43:46.810Z,98579.56
2022-11-03T18:46:13.780Z,98575.59
2022-11-03T18:48:40.995Z,98576.41
2022-11-03T18:51:08.753Z,98556.91
2022-11-03T18:53:35.769Z,98555.25
2022-11-03T18:56:02.837Z,98549.16
2022-11-03T18:58:32.955Z,98547.69
2022-11-03T19:01:00.015Z,98547.28
2022-11-03T19:03:27.707Z,98550.19
2022-11-03T19:05:54.833Z,98542.63
2022-11-03T19:08:32.998Z,98540.75
2022-11-03T19:11:00.454Z,98542.88
2022-11-03T19:13:35.167Z,98533.44
2022-11-03T19:16:09.443Z,98536.78
2022-11-03T19:18:36.642Z,98521.88
2022-11-03T19:21:11.639Z,98532.59
2022-11-03T19:23:38.660Z,98540.16
2022-11-03T19:26:12.920Z,98556.28
2022-11-03T19:28:39.944Z,98589.84
2022-11-03T19:31:14.009Z,98585.44
2022-11-03T19:33:42.568Z,98590.69
2022-11-03T19:36:09.622Z,98592.78
2022-11-03T19:38:36.641Z,98582.72
2022-11-03T19:41:03.684Z,98561.94
2022-11-03T19:43:34.616Z,98546.41
2022-11-03T19:46:04.178Z,98563.19
2022-11-03T19:48:34.125Z,98552.28
2022-11-03T19:51:02.654Z,98545.34
2022-11-03T19:53:29.891Z,98542.88
2022-11-03T19:55:57.096Z,98560.91
2022-11-03T19:58:26.678Z,98556.50
2022-11-03T20:00:54.839Z,98551.00
2022-11-03T20:03:23.096Z,98554.19
2022-11-03T20:05:57.152Z,98564.63
2022-11-03T20:08:30.845Z,98568.00
2022-11-03T20:10:58.175Z,98562.34
2022-11-03T20:13:29.182Z,98569.28
2022-11-03T20:16:00.754Z,98568.63
2022-11-03T20:18:28.653Z,98565.50
2022-11-03T20:20:56.234Z,98562.56
2022-11-03T20:23:28.618Z,98559.00
2022-11-03T20:25:57.201Z,98564.44
2022-11-03T20:28:27.251Z,98560.50
2022-11-03T20:30:55.033Z,98559.00
2022-11-03T20:33:24.971Z,98565.72
2022-11-03T20:35:55.484Z,98555.44
2022-11-03T20:38:24.819Z,98562.56
2022-11-03T20:40:54.430Z,98563.22
2022-11-03T20:43:27.826Z,98559.22
2022-11-03T20:45:56.698Z,98554.59
2022-11-03T20:48:24.136Z,98557.97
2022-11-03T20:50:52.139Z,98544.34
2022-11-03T20:53:22.296Z,98536.38
2022-11-03T20:55:50.555Z,98544.75
2022-11-03T20:58:18.125Z,98544.94
2022-11-03T21:00:47.121Z,98548.28
2022-11-03T21:06:16.490Z,98539.72
2022-11-03T21:08:44.586Z,98537.84
2022-11-03T21:11:20.813Z,98530.47
2022-11-03T21:13:48.415Z,98528.59
2022-11-03T21:16:24.746Z,98514.34
2022-11-03T21:18:51.939Z,98519.38
2022-11-03T21:21:21.234Z,98514.97
2022-11-03T21:23:49.580Z,98512.25
2022-11-03T21:26:16.645Z,98509.31
2022-11-03T21:28:43.697Z,98514.75
2022-11-03T21:31:13.129Z,98506.59
2022-11-03T21:33:40.188Z,98501.34
2022-11-03T21:36:07.584Z,98496.75
2022-11-03T21:38:34.600Z,98502.19
2022-11-03T21:41:01.581Z,98497.16
2022-11-03T21:43:29.596Z,98501.34
2022-11-03T21:46:07.866Z,98491.50
2022-11-03T21:48:36.004Z,98495.47
2022-11-03T21:51:03.747Z,98488.97
2022-11-03T21:53:31.225Z,98489.38
2022-11-03T21:55:58.205Z,98487.72
2022-11-03T21:58:25.175Z,98473.25
2022-11-03T22:00:52.218Z,98469.28
2022-11-03T22:03:20.263Z,98477.66
2022-11-03T22:05:47.254Z,98472.22
2022-11-03T22:08:14.243Z,98470.31
2022-11-03T22:10:41.275Z,98469.03
2022-11-03T22:13:08.646Z,98464.25
2022-11-03T22:15:35.965Z,98476.00
2022-11-03T22:18:04.717Z,98473.03
2022-11-03T22:20:31.876Z,98470.09
2022-11-03T22:23:02.067Z,98470.31
2022-11-03T22:25:29.190Z,98468.22
2022-11-03T22:27:57.139Z,98454.19
2022-11-03T22:30:24.142Z,98466.31
2022-11-03T22:32:53.423Z,98463.38
2022-11-03T22:35:22.034Z,98464.25
2022-11-03T22:38:26.970Z,98464.66
2022-11-03T22:40:53.997Z,98463.38
2022-11-03T22:43:21.572Z,98455.84
2022-11-03T22:45:48.618Z,98459.84
2022-11-03T22:48:15.741Z,98473.69
2022-11-03T22:50:43.274Z,98472.41
2022-11-03T22:53:10.513Z,98471.38
2022-11-03T22:55:37.670Z,98466.31
2022-11-03T22:58:04.628Z,98467.16
2022-11-03T23:00:31.844Z,98472.81
2022-11-03T23:02:58.892Z,98469.69
2022-11-03T23:05:25.913Z,98468.44
2022-11-03T23:07:52.926Z,98467.38
2022-11-03T23:10:20.045Z,98464.66
2022-11-03T23:12:47.050Z,98467.81
2022-11-03T23:15:14.223Z,98468.44
2022-11-03T23:17:41.235Z,98485.00
2022-11-03T23:20:08.905Z,98482.47
2022-11-03T23:22:35.956Z,98472.81
2022-11-03T23:25:03.212Z,98489.63
2022-11-03T23:27:30.235Z,98490.84
2022-11-03T23:29:57.198Z,98498.19
2022-11-03T23:32:24.364Z,98499.03
2022-11-03T23:34:51.388Z,98493.16
2022-11-03T23:37:18.333Z,98495.47
2022-11-03T23:39:45.334Z,98510.78
2022-11-03T23:42:12.340Z,98526.28
2022-11-03T23:44:39.409Z,98518.75
2022-11-03T23:47:08.310Z,98515.81
2022-11-03T23:49:35.343Z,98518.75
2022-11-03T23:52:02.393Z,98522.75
2022-11-03T23:54:29.481Z,98521.47
2022-11-03T23:56:56.482Z,98527.78
2022-11-03T23:59:24.245Z,98518.13
